sensor_id;sensor_type;location;lat;lon;timestamp;P1;P2;P0
68698;PMS7003;55680;48.850;2.310;2023-01-01T00:00:56;0.50;0.50;0.50
68698;PMS7003;55680;48.850;2.310;2023-01-01T00:03:21;2.67;1.00;0.33
68698;PMS7003;55680;48.850;2.310;2023-01-01T00:05:47;1.00;1.00;0.67
68698;PMS7003;55680;48.850;2.310;2023-01-01T00:08:12;3.33;2.00;1.00
68698;PMS7003;55680;48.850;2.310;2023-01-01T00:10:37;2.50;1.50;1.00
68698;PMS7003;55680;48.850;2.310;2023-01-01T00:13:02;4.00;2.00;1.00
68698;PMS7003;55680;48.850;2.310;2023-01-01T00:15:27;3.33;1.33;1.00
68698;PMS7003;55680;48.850;2.310;2023-01-01T00:17:53;1.00;1.00;1.00
68698;PMS7003;55680;48.850;2.310;2023-01-01T00:20:18;0.00;0.00;0.00
68698;PMS7003;55680;48.850;2.310;2023-01-01T00:22:44;2.00;2.00;1.00
68698;PMS7003;55680;48.850;2.310;2023-01-01T00:25:09;1.00;1.00;1.00
68698;PMS7003;55680;48.850;2.310;2023-01-01T00:27:35;2.00;2.00;1.00
68698;PMS7003;55680;48.850;2.310;2023-01-01T00:30:00;2.00;2.00;1.33
68698;PMS7003;55680;48.850;2.310;2023-01-01T00:32:26;4.50;1.75;1.00
68698;PMS7003;55680;48.850;2.310;2023-01-01T00:34:51;4.00;1.00;0.67
68698;PMS7003;55680;48.850;2.310;2023-01-01T00:37:16;4.00;3.00;2.00
68698;PMS7003;55680;48.850;2.310;2023-01-01T00:39:42;3.00;2.00;0.75
68698;PMS7003;55680;48.850;2.310;2023-01-01T00:42:07;2.75;2.00;0.00
68698;PMS7003;55680;48.850;2.310;2023-01-01T00:44:32;2.00;2.00;1.00
68698;PMS7003;55680;48.850;2.310;2023-01-01T00:46:58;1.25;1.25;0.50
68698;PMS7003;55680;48.850;2.310;2023-01-01T00:49:23;3.33;2.00;0.67
68698;PMS7003;55680;48.850;2.310;2023-01-01T00:51:48;3.00;3.00;2.00
68698;PMS7003;55680;48.850;2.310;2023-01-01T00:54:13;3.25;2.00;2.00
68698;PMS7003;55680;48.850;2.310;2023-01-01T00:56:39;3.33;2.67;2.67
68698;PMS7003;55680;48.850;2.310;2023-01-01T00:59:04;4.25;3.50;2.00
68698;PMS7003;55680;48.850;2.310;2023-01-01T01:01:29;5.00;5.00;2.50
68698;PMS7003;55680;48.850;2.310;2023-01-01T01:03:55;3.00;3.00;2.00
68698;PMS7003;55680;48.850;2.310;2023-01-01T01:06:20;2.00;2.00;2.00
68698;PMS7003;55680;48.850;2.310;2023-01-01T01:08:46;1.00;1.00;1.00
68698;PMS7003;55680;48.850;2.310;2023-01-01T01:11:16;2.25;2.00;2.00
68698;PMS7003;55680;48.850;2.310;2023-01-01T01:13:42;5.25;2.25;1.75
68698;PMS7003;55680;48.850;2.310;2023-01-01T01:16:08;2.00;2.00;1.00
68698;PMS7003;55680;48.850;2.310;2023-01-01T01:18:33;3.00;2.00;2.00
68698;PMS7003;55680;48.850;2.310;2023-01-01T01:20:59;2.50;2.00;1.75
68698;PMS7003;55680;48.850;2.310;2023-01-01T01:23:24;1.00;1.00;1.00
68698;PMS7003;55680;48.850;2.310;2023-01-01T01:25:49;2.00;2.00;1.00
68698;PMS7003;55680;48.850;2.310;2023-01-01T01:28:14;2.75;2.00;1.00
68698;PMS7003;55680;48.850;2.310;2023-01-01T01:30:40;1.33;1.33;0.67
68698;PMS7003;55680;48.850;2.310;2023-01-01T01:33:05;1.50;1.50;1.25
68698;PMS7003;55680;48.850;2.310;2023-01-01T01:35:30;1.00;1.00;1.00
68698;PMS7003;55680;48.850;2.310;2023-01-01T01:37:57;3.25;2.25;1.25
68698;PMS7003;55680;48.850;2.310;2023-01-01T01:40:22;1.75;1.75;1.50
68698;PMS7003;55680;48.850;2.310;2023-01-01T01:42:47;1.75;1.00;1.00
68698;PMS7003;55680;48.850;2.310;2023-01-01T01:45:14;3.00;1.75;1.00
68698;PMS7003;55680;48.850;2.310;2023-01-01T01:50:16;2.50;1.50;1.00
68698;PMS7003;55680;48.850;2.310;2023-01-01T01:52:46;2.50;2.50;1.50
68698;PMS7003;55680;48.850;2.310;2023-01-01T01:55:19;2.00;2.00;2.00
68698;PMS7003;55680;48.850;2.310;2023-01-01T01:57:44;2.00;2.00;1.25
68698;PMS7003;55680;48.850;2.310;2023-01-01T02:00:09;2.00;2.00;2.00
68698;PMS7003;55680;48.850;2.310;2023-01-01T02:02:36;2.00;2.00;1.00
68698;PMS7003;55680;48.850;2.310;2023-01-01T02:05:03;4.00;2.75;2.00
68698;PMS7003;55680;48.850;2.310;2023-01-01T02:07:29;3.25;2.00;1.00
68698;PMS7003;55680;48.850;2.310;2023-01-01T02:09:55;0.75;0.75;0.75
68698;PMS7003;55680;48.850;2.310;2023-01-01T02:12:21;1.00;1.00;0.50
68698;PMS7003;55680;48.850;2.310;2023-01-01T02:14:46;3.00;1.67;1.67
68698;PMS7003;55680;48.850;2.310;2023-01-01T02:17:17;2.25;2.25;1.75
68698;PMS7003;55680;48.850;2.310;2023-01-01T02:22:14;2.00;2.00;1.00
68698;PMS7003;55680;48.850;2.310;2023-01-01T02:24:53;2.50;2.50;1.00
68698;PMS7003;55680;48.850;2.310;2023-01-01T02:30:04;2.25;1.50;0.75
68698;PMS7003;55680;48.850;2.310;2023-01-01T02:35:16;4.75;3.00;1.00
68698;PMS7003;55680;48.850;2.310;2023-01-01T02:37:59;3.50;2.00;1.00
68698;PMS7003;55680;48.850;2.310;2023-01-01T02:40:28;1.75;0.75;0.75
68698;PMS7003;55680;48.850;2.310;2023-01-01T02:42:54;1.00;1.00;1.00
68698;PMS7003;55680;48.850;2.310;2023-01-01T02:45:20;1.50;1.50;1.50
68698;PMS7003;55680;48.850;2.310;2023-01-01T02:47:46;3.00;3.00;2.25
68698;PMS7003;55680;48.850;2.310;2023-01-01T02:50:15;1.75;1.75;1.75
68698;PMS7003;55680;48.850;2.310;2023-01-01T02:52:51;1.25;1.25;1.00
68698;PMS7003;55680;48.850;2.310;2023-01-01T02:55:28;1.50;1.00;1.00
68698;PMS7003;55680;48.850;2.310;2023-01-01T03:01:02;3.25;1.75;1.00
68698;PMS7003;55680;48.850;2.310;2023-01-01T03:03:39;3.00;3.00;2.00
68698;PMS7003;55680;48.850;2.310;2023-01-01T03:06:07;3.25;2.00;1.75
68698;PMS7003;55680;48.850;2.310;2023-01-01T03:11:21;2.75;1.00;1.00
68698;PMS7003;55680;48.850;2.310;2023-01-01T03:16:35;1.50;1.50;1.00
68698;PMS7003;55680;48.850;2.310;2023-01-01T03:19:08;2.00;2.00;1.00
68698;PMS7003;55680;48.850;2.310;2023-01-01T03:21:47;2.50;2.50;1.25
68698;PMS7003;55680;48.850;2.310;2023-01-01T03:24:16;2.00;2.00;2.00
68698;PMS7003;55680;48.850;2.310;2023-01-01T03:26:42;3.00;3.00;1.50
68698;PMS7003;55680;48.850;2.310;2023-01-01T03:29:08;4.00;2.50;2.00
68698;PMS7003;55680;48.850;2.310;2023-01-01T03:31:36;2.00;2.00;1.00
68698;PMS7003;55680;48.850;2.310;2023-01-01T03:34:06;2.25;2.25;1.50
68698;PMS7003;55680;48.850;2.310;2023-01-01T03:36:35;2.75;2.75;1.00
68698;PMS7003;55680;48.850;2.310;2023-01-01T03:39:06;1.25;1.25;1.00
68698;PMS7003;55680;48.850;2.310;2023-01-01T03:41:35;1.25;1.25;1.00
68698;PMS7003;55680;48.850;2.310;2023-01-01T03:44:03;2.25;1.75;1.25
68698;PMS7003;55680;48.850;2.310;2023-01-01T03:46:32;1.50;1.50;1.00
68698;PMS7003;55680;48.850;2.310;2023-01-01T03:48:59;2.75;1.75;1.75
68698;PMS7003;55680;48.850;2.310;2023-01-01T03:53:50;2.00;2.00;1.00
68698;PMS7003;55680;48.850;2.310;2023-01-01T03:59:28;3.00;3.00;2.33
68698;PMS7003;55680;48.850;2.310;2023-01-01T04:01:31;2.25;2.25;1.00
68698;PMS7003;55680;48.850;2.310;2023-01-01T04:03:58;5.75;1.75;1.50
68698;PMS7003;55680;48.850;2.310;2023-01-01T04:06:24;1.00;1.00;1.00
68698;PMS7003;55680;48.850;2.310;2023-01-01T04:08:49;3.00;2.33;2.00
68698;PMS7003;55680;48.850;2.310;2023-01-01T04:11:18;2.75;2.75;1.75
68698;PMS7003;55680;48.850;2.310;2023-01-01T04:14:04;2.00;2.00;1.25
68698;PMS7003;55680;48.850;2.310;2023-01-01T04:16:29;1.67;1.67;1.33
68698;PMS7003;55680;48.850;2.310;2023-01-01T04:18:54;3.00;3.00;2.00
68698;PMS7003;55680;48.850;2.310;2023-01-01T04:21:19;1.67;1.00;0.00
68698;PMS7003;55680;48.850;2.310;2023-01-01T04:23:45;2.67;2.00;1.33
68698;PMS7003;55680;48.850;2.310;2023-01-01T04:26:13;0.33;0.33;0.00
68698;PMS7003;55680;48.850;2.310;2023-01-01T04:28:38;2.50;1.25;0.75
68698;PMS7003;55680;48.850;2.310;2023-01-01T04:31:04;2.00;2.00;2.00
68698;PMS7003;55680;48.850;2.310;2023-01-01T04:33:29;3.00;3.00;1.67
68698;PMS7003;55680;48.850;2.310;2023-01-01T04:35:54;1.00;1.00;0.33
68698;PMS7003;55680;48.850;2.310;2023-01-01T04:38:20;3.00;1.25;1.00
68698;PMS7003;55680;48.850;2.310;2023-01-01T04:40:45;2.00;2.00;2.00
68698;PMS7003;55680;48.850;2.310;2023-01-01T04:43:21;1.25;1.25;1.00
68698;PMS7003;55680;48.850;2.310;2023-01-01T04:45:53;1.67;1.67;1.67
68698;PMS7003;55680;48.850;2.310;2023-01-01T04:48:19;2.00;2.00;1.00
68698;PMS7003;55680;48.850;2.310;2023-01-01T04:50:44;1.33;1.33;0.67
68698;PMS7003;55680;48.850;2.310;2023-01-01T04:53:17;2.00;2.00;1.00
68698;PMS7003;55680;48.850;2.310;2023-01-01T04:55:42;1.33;1.33;0.67
68698;PMS7003;55680;48.850;2.310;2023-01-01T04:58:07;2.67;2.67;2.00
68698;PMS7003;55680;48.850;2.310;2023-01-01T05:00:32;2.00;2.00;1.67
68698;PMS7003;55680;48.850;2.310;2023-01-01T05:02:58;1.75;1.75;1.00
68698;PMS7003;55680;48.850;2.310;2023-01-01T05:05:23;2.00;2.00;1.00
68698;PMS7003;55680;48.850;2.310;2023-01-01T05:07:49;1.50;1.50;1.00
68698;PMS7003;55680;48.850;2.310;2023-01-01T05:10:15;3.50;1.75;1.00
68698;PMS7003;55680;48.850;2.310;2023-01-01T05:12:40;5.25;3.75;1.00
68698;PMS7003;55680;48.850;2.310;2023-01-01T05:15:05;2.00;2.00;2.00
68698;PMS7003;55680;48.850;2.310;2023-01-01T05:17:30;4.00;4.00;2.00
68698;PMS7003;55680;48.850;2.310;2023-01-01T05:19:56;1.00;1.00;1.00
68698;PMS7003;55680;48.850;2.310;2023-01-01T05:22:21;1.00;1.00;0.00
68698;PMS7003;55680;48.850;2.310;2023-01-01T05:24:46;2.00;2.00;1.00
68698;PMS7003;55680;48.850;2.310;2023-01-01T05:27:11;3.00;3.00;1.00
68698;PMS7003;55680;48.850;2.310;2023-01-01T05:29:37;4.33;1.67;1.00
68698;PMS7003;55680;48.850;2.310;2023-01-01T05:32:02;4.00;0.00;0.00
68698;PMS7003;55680;48.850;2.310;2023-01-01T05:34:27;0.50;0.50;0.00
68698;PMS7003;55680;48.850;2.310;2023-01-01T05:36:52;2.25;2.00;1.75
68698;PMS7003;55680;48.850;2.310;2023-01-01T05:39:18;1.67;1.67;1.67
68698;PMS7003;55680;48.850;2.310;2023-01-01T05:41:43;3.25;3.25;1.75
68698;PMS7003;55680;48.850;2.310;2023-01-01T05:44:08;2.00;2.00;1.00
68698;PMS7003;55680;48.850;2.310;2023-01-01T05:46:34;3.25;0.25;0.00
68698;PMS7003;55680;48.850;2.310;2023-01-01T05:49:00;1.00;0.00;0.00
68698;PMS7003;55680;48.850;2.310;2023-01-01T05:51:26;3.00;1.67;1.00
68698;PMS7003;55680;48.850;2.310;2023-01-01T05:53:52;2.50;1.25;1.00
68698;PMS7003;55680;48.850;2.310;2023-01-01T05:56:17;2.00;2.00;1.00
68698;PMS7003;55680;48.850;2.310;2023-01-01T05:58:42;2.00;2.00;1.33
68698;PMS7003;55680;48.850;2.310;2023-01-01T06:01:12;1.00;1.00;1.00
68698;PMS7003;55680;48.850;2.310;2023-01-01T06:03:38;1.00;1.00;0.00
68698;PMS7003;55680;48.850;2.310;2023-01-01T06:06:07;3.00;1.50;0.50
68698;PMS7003;55680;48.850;2.310;2023-01-01T06:08:33;3.00;2.00;1.00
68698;PMS7003;55680;48.850;2.310;2023-01-01T06:10:59;2.50;2.50;1.25
68698;PMS7003;55680;48.850;2.310;2023-01-01T06:13:25;3.00;2.00;0.00
68698;PMS7003;55680;48.850;2.310;2023-01-01T06:15:52;2.00;2.00;2.00
68698;PMS7003;55680;48.850;2.310;2023-01-01T06:18:17;2.25;2.25;1.75
68698;PMS7003;55680;48.850;2.310;2023-01-01T06:20:42;2.33;2.33;1.33
68698;PMS7003;55680;48.850;2.310;2023-01-01T06:23:07;1.33;1.33;1.00
68698;PMS7003;55680;48.850;2.310;2023-01-01T06:25:33;4.00;2.67;2.00
68698;PMS7003;55680;48.850;2.310;2023-01-01T06:27:58;1.00;1.00;1.00
68698;PMS7003;55680;48.850;2.310;2023-01-01T06:30:24;1.00;1.00;1.00
68698;PMS7003;55680;48.850;2.310;2023-01-01T06:32:49;4.00;2.00;1.00
68698;PMS7003;55680;48.850;2.310;2023-01-01T06:35:14;1.00;1.00;1.00
68698;PMS7003;55680;48.850;2.310;2023-01-01T06:37:39;2.00;2.00;1.00
68698;PMS7003;55680;48.850;2.310;2023-01-01T06:40:05;1.00;1.00;1.00
68698;PMS7003;55680;48.850;2.310;2023-01-01T06:42:30;1.00;1.00;1.00
68698;PMS7003;55680;48.850;2.310;2023-01-01T06:44:55;2.33;1.00;1.00
68698;PMS7003;55680;48.850;2.310;2023-01-01T06:47:21;1.00;1.00;1.00
68698;PMS7003;55680;48.850;2.310;2023-01-01T06:49:46;1.75;1.75;1.00
68698;PMS7003;55680;48.850;2.310;2023-01-01T06:52:12;2.75;2.00;1.00
68698;PMS7003;55680;48.850;2.310;2023-01-01T06:54:37;1.33;1.33;1.00
68698;PMS7003;55680;48.850;2.310;2023-01-01T06:57:02;1.00;1.00;0.00
68698;PMS7003;55680;48.850;2.310;2023-01-01T06:59:27;2.00;2.00;1.00
68698;PMS7003;55680;48.850;2.310;2023-01-01T07:01:52;2.00;1.25;1.00
68698;PMS7003;55680;48.850;2.310;2023-01-01T07:04:18;2.00;2.00;1.33
68698;PMS7003;55680;48.850;2.310;2023-01-01T07:06:43;2.50;2.50;1.00
68698;PMS7003;55680;48.850;2.310;2023-01-01T07:09:08;1.00;1.00;0.25
68698;PMS7003;55680;48.850;2.310;2023-01-01T07:11:34;2.00;2.00;0.75
68698;PMS7003;55680;48.850;2.310;2023-01-01T07:13:59;2.50;1.00;0.25
68698;PMS7003;55680;48.850;2.310;2023-01-01T07:16:24;2.00;1.00;0.00
68698;PMS7003;55680;48.850;2.310;2023-01-01T07:18:50;3.25;1.00;0.75
68698;PMS7003;55680;48.850;2.310;2023-01-01T07:21:25;2.00;2.00;1.00
68698;PMS7003;55680;48.850;2.310;2023-01-01T07:23:51;1.00;1.00;0.00
68698;PMS7003;55680;48.850;2.310;2023-01-01T07:26:17;3.00;3.00;2.00
68698;PMS7003;55680;48.850;2.310;2023-01-01T07:28:42;3.00;1.67;1.00
68698;PMS7003;55680;48.850;2.310;2023-01-01T07:31:08;0.00;0.00;0.00
68698;PMS7003;55680;48.850;2.310;2023-01-01T07:33:34;2.50;1.25;1.00
68698;PMS7003;55680;48.850;2.310;2023-01-01T07:35:59;2.75;1.25;0.75
68698;PMS7003;55680;48.850;2.310;2023-01-01T07:38:24;1.33;0.00;0.00
68698;PMS7003;55680;48.850;2.310;2023-01-01T07:40:49;1.00;1.00;1.00
68698;PMS7003;55680;48.850;2.310;2023-01-01T07:43:15;3.75;1.50;1.50
68698;PMS7003;55680;48.850;2.310;2023-01-01T07:45:40;2.50;1.00;0.25
68698;PMS7003;55680;48.850;2.310;2023-01-01T07:48:06;3.00;0.33;0.00
68698;PMS7003;55680;48.850;2.310;2023-01-01T07:50:33;0.75;0.75;0.75
68698;PMS7003;55680;48.850;2.310;2023-01-01T07:52:59;3.75;2.00;1.25
68698;PMS7003;55680;48.850;2.310;2023-01-01T07:55:24;1.33;0.00;0.00
68698;PMS7003;55680;48.850;2.310;2023-01-01T07:57:50;1.00;1.00;0.67
68698;PMS7003;55680;48.850;2.310;2023-01-01T08:00:16;0.00;0.00;0.00
68698;PMS7003;55680;48.850;2.310;2023-01-01T08:02:42;0.00;0.00;0.00
68698;PMS7003;55680;48.850;2.310;2023-01-01T08:05:07;0.00;0.00;0.00
68698;PMS7003;55680;48.850;2.310;2023-01-01T08:07:33;0.00;0.00;0.00
68698;PMS7003;55680;48.850;2.310;2023-01-01T08:09:58;1.25;1.25;0.25
68698;PMS7003;55680;48.850;2.310;2023-01-01T08:12:24;0.00;0.00;0.00
68698;PMS7003;55680;48.850;2.310;2023-01-01T08:14:49;1.00;1.00;0.25
68698;PMS7003;55680;48.850;2.310;2023-01-01T08:17:14;1.00;1.00;0.00
68698;PMS7003;55680;48.850;2.310;2023-01-01T08:19:39;1.00;1.00;1.00
68698;PMS7003;55680;48.850;2.310;2023-01-01T08:22:04;2.00;1.00;0.00
68698;PMS7003;55680;48.850;2.310;2023-01-01T08:24:30;0.00;0.00;0.00
68698;PMS7003;55680;48.850;2.310;2023-01-01T08:26:55;4.00;2.00;1.00
68698;PMS7003;55680;48.850;2.310;2023-01-01T08:29:20;1.00;1.00;1.00
68698;PMS7003;55680;48.850;2.310;2023-01-01T08:31:45;2.00;2.00;1.00
68698;PMS7003;55680;48.850;2.310;2023-01-01T08:34:11;2.00;1.00;0.00
68698;PMS7003;55680;48.850;2.310;2023-01-01T08:36:36;1.00;1.00;0.75
68698;PMS7003;55680;48.850;2.310;2023-01-01T08:39:02;1.00;0.75;0.75
68698;PMS7003;55680;48.850;2.310;2023-01-01T08:41:27;3.00;1.75;1.00
68698;PMS7003;55680;48.850;2.310;2023-01-01T08:43:52;1.00;1.00;1.00
68698;PMS7003;55680;48.850;2.310;2023-01-01T08:46:17;2.00;2.00;1.00
68698;PMS7003;55680;48.850;2.310;2023-01-01T08:48:43;2.00;1.00;0.67
68698;PMS7003;55680;48.850;2.310;2023-01-01T08:51:08;1.67;1.67;0.00
68698;PMS7003;55680;48.850;2.310;2023-01-01T08:53:34;1.00;1.00;1.00
68698;PMS7003;55680;48.850;2.310;2023-01-01T08:58:24;1.00;1.00;1.00
68698;PMS7003;55680;48.850;2.310;2023-01-01T09:00:50;2.25;2.25;1.00
68698;PMS7003;55680;48.850;2.310;2023-01-01T09:03:15;3.00;1.00;0.00
68698;PMS7003;55680;48.850;2.310;2023-01-01T09:05:40;1.00;1.00;1.00
68698;PMS7003;55680;48.850;2.310;2023-01-01T09:08:10;1.00;1.00;0.75
68698;PMS7003;55680;48.850;2.310;2023-01-01T09:10:35;0.00;0.00;0.00
68698;PMS7003;55680;48.850;2.310;2023-01-01T09:13:00;2.33;0.33;0.33
68698;PMS7003;55680;48.850;2.310;2023-01-01T09:15:25;1.00;1.00;0.67
68698;PMS7003;55680;48.850;2.310;2023-01-01T09:17:50;2.33;2.33;1.00
68698;PMS7003;55680;48.850;2.310;2023-01-01T09:20:16;1.00;1.00;1.00
68698;PMS7003;55680;48.850;2.310;2023-01-01T09:22:41;1.75;1.75;1.00
68698;PMS7003;55680;48.850;2.310;2023-01-01T09:25:06;4.00;1.67;1.00
68698;PMS7003;55680;48.850;2.310;2023-01-01T09:27:31;1.75;1.75;1.50
68698;PMS7003;55680;48.850;2.310;2023-01-01T09:29:57;1.00;1.00;1.00
68698;PMS7003;55680;48.850;2.310;2023-01-01T09:32:22;5.00;1.75;1.00
68698;PMS7003;55680;48.850;2.310;2023-01-01T09:34:47;1.00;0.25;0.25
68698;PMS7003;55680;48.850;2.310;2023-01-01T09:37:13;0.67;0.67;0.33
68698;PMS7003;55680;48.850;2.310;2023-01-01T09:39:38;1.00;1.00;0.50
68698;PMS7003;55680;48.850;2.310;2023-01-01T09:42:06;3.00;1.00;0.00
68698;PMS7003;55680;48.850;2.310;2023-01-01T09:44:41;3.00;3.00;1.00
68698;PMS7003;55680;48.850;2.310;2023-01-01T09:47:17;2.50;1.00;1.00
68698;PMS7003;55680;48.850;2.310;2023-01-01T09:49:44;2.00;2.00;2.00
68698;PMS7003;55680;48.850;2.310;2023-01-01T09:52:11;2.00;1.75;1.00
68698;PMS7003;55680;48.850;2.310;2023-01-01T09:54:39;2.00;2.00;1.75
68698;PMS7003;55680;48.850;2.310;2023-01-01T09:57:07;2.00;2.00;1.00
68698;PMS7003;55680;48.850;2.310;2023-01-01T09:59:35;3.00;3.00;2.00
68698;PMS7003;55680;48.850;2.310;2023-01-01T10:07:37;2.25;2.25;2.00
68698;PMS7003;55680;48.850;2.310;2023-01-01T10:12:54;2.50;2.00;1.00
68698;PMS7003;55680;48.850;2.310;2023-01-01T10:15:28;4.00;3.00;2.00
68698;PMS7003;55680;48.850;2.310;2023-01-01T10:17:58;2.50;2.50;1.00
68698;PMS7003;55680;48.850;2.310;2023-01-01T10:20:32;2.00;1.00;1.00
68698;PMS7003;55680;48.850;2.310;2023-01-01T10:23:02;2.50;1.50;1.50
68698;PMS7003;55680;48.850;2.310;2023-01-01T10:25:31;2.00;2.00;1.00
68698;PMS7003;55680;48.850;2.310;2023-01-01T10:27:59;5.00;3.50;2.00
68698;PMS7003;55680;48.850;2.310;2023-01-01T10:30:26;3.00;1.00;0.50
68698;PMS7003;55680;48.850;2.310;2023-01-01T10:32:52;3.75;1.00;1.00
68698;PMS7003;55680;48.850;2.310;2023-01-01T10:35:19;1.50;1.25;1.00
68698;PMS7003;55680;48.850;2.310;2023-01-01T10:37:44;3.00;2.50;1.50
68698;PMS7003;55680;48.850;2.310;2023-01-01T10:40:19;4.00;1.50;1.00
68698;PMS7003;55680;48.850;2.310;2023-01-01T10:42:46;3.50;2.00;1.00
68698;PMS7003;55680;48.850;2.310;2023-01-01T10:45:13;2.50;2.50;1.75
68698;PMS7003;55680;48.850;2.310;2023-01-01T10:47:39;2.50;2.50;1.75
68698;PMS7003;55680;48.850;2.310;2023-01-01T10:50:05;1.50;1.50;1.00
68698;PMS7003;55680;48.850;2.310;2023-01-01T10:52:35;2.25;2.25;1.00
68698;PMS7003;55680;48.850;2.310;2023-01-01T10:55:01;2.00;2.00;2.00
68698;PMS7003;55680;48.850;2.310;2023-01-01T10:59:51;3.00;2.00;1.00
68698;PMS7003;55680;48.850;2.310;2023-01-01T11:04:42;4.00;1.00;1.00
68698;PMS7003;55680;48.850;2.310;2023-01-01T11:07:08;4.00;2.00;1.25
68698;PMS7003;55680;48.850;2.310;2023-01-01T11:09:33;1.00;1.00;0.25
68698;PMS7003;55680;48.850;2.310;2023-01-01T11:12:04;0.00;0.00;0.00
68698;PMS7003;55680;48.850;2.310;2023-01-01T11:14:37;2.00;2.00;1.00
68698;PMS7003;55680;48.850;2.310;2023-01-01T11:17:03;3.50;2.75;2.00
68698;PMS7003;55680;48.850;2.310;2023-01-01T11:19:32;2.00;2.00;2.00
68698;PMS7003;55680;48.850;2.310;2023-01-01T11:21:59;2.00;2.00;1.00
68698;PMS7003;55680;48.850;2.310;2023-01-01T11:24:25;2.00;0.75;0.00
68698;PMS7003;55680;48.850;2.310;2023-01-01T11:26:51;1.00;1.00;1.00
68698;PMS7003;55680;48.850;2.310;2023-01-01T11:29:23;2.00;1.00;0.00
68698;PMS7003;55680;48.850;2.310;2023-01-01T11:31:49;0.50;0.50;0.00
68698;PMS7003;55680;48.850;2.310;2023-01-01T11:34:25;4.50;1.00;0.25
68698;PMS7003;55680;48.850;2.310;2023-01-01T11:36:51;2.00;2.00;1.00
68698;PMS7003;55680;48.850;2.310;2023-01-01T11:39:26;1.00;1.00;1.00
68698;PMS7003;55680;48.850;2.310;2023-01-01T11:41:52;2.00;2.00;1.75
68698;PMS7003;55680;48.850;2.310;2023-01-01T11:44:37;4.00;2.25;2.00
68698;PMS7003;55680;48.850;2.310;2023-01-01T11:47:05;2.00;2.00;1.00
68698;PMS7003;55680;48.850;2.310;2023-01-01T11:49:30;1.00;1.00;1.00
68698;PMS7003;55680;48.850;2.310;2023-01-01T11:51:56;2.00;2.00;1.00
68698;PMS7003;55680;48.850;2.310;2023-01-01T11:56:48;1.00;1.00;1.00
68698;PMS7003;55680;48.850;2.310;2023-01-01T11:59:15;1.00;1.00;1.00
68698;PMS7003;55680;48.850;2.310;2023-01-01T12:01:45;3.00;1.00;1.00
68698;PMS7003;55680;48.850;2.310;2023-01-01T12:04:26;1.25;1.25;0.50
68698;PMS7003;55680;48.850;2.310;2023-01-01T12:07:06;1.75;1.75;1.00
68698;PMS7003;55680;48.850;2.310;2023-01-01T12:09:36;3.50;2.00;1.25
68698;PMS7003;55680;48.850;2.310;2023-01-01T12:12:07;1.25;1.25;1.00
68698;PMS7003;55680;48.850;2.310;2023-01-01T12:14:35;2.75;1.75;1.00
68698;PMS7003;55680;48.850;2.310;2023-01-01T12:19:57;3.75;2.75;2.00
68698;PMS7003;55680;48.850;2.310;2023-01-01T12:22:24;2.75;1.75;1.25
68698;PMS7003;55680;48.850;2.310;2023-01-01T12:24:49;3.00;2.25;1.25
68698;PMS7003;55680;48.850;2.310;2023-01-01T12:38:01;1.00;1.00;1.00
68698;PMS7003;55680;48.850;2.310;2023-01-01T12:43:14;1.75;1.50;1.00
68698;PMS7003;55680;48.850;2.310;2023-01-01T13:00:57;6.33;4.67;3.33
68698;PMS7003;55680;48.850;2.310;2023-01-01T13:03:25;2.25;2.25;1.25
68698;PMS7003;55680;48.850;2.310;2023-01-01T13:05:53;3.25;3.25;3.00
68698;PMS7003;55680;48.850;2.310;2023-01-01T13:08:18;2.75;2.00;1.00
68698;PMS7003;55680;48.850;2.310;2023-01-01T13:10:44;6.33;3.33;3.00
68698;PMS7003;55680;48.850;2.310;2023-01-01T13:13:10;5.00;4.25;3.00
68698;PMS7003;55680;48.850;2.310;2023-01-01T13:20:55;1.00;1.00;1.00
68698;PMS7003;55680;48.850;2.310;2023-01-01T13:28:36;1.75;1.00;0.50
68698;PMS7003;55680;48.850;2.310;2023-01-01T13:31:01;3.67;3.67;2.67
68698;PMS7003;55680;48.850;2.310;2023-01-01T13:33:27;1.00;1.00;1.00
68698;PMS7003;55680;48.850;2.310;2023-01-01T13:42:01;3.00;2.00;1.00
68698;PMS7003;55680;48.850;2.310;2023-01-01T13:49:05;2.67;2.67;2.00
68698;PMS7003;55680;48.850;2.310;2023-01-01T13:54:10;4.25;2.75;2.00
68698;PMS7003;55680;48.850;2.310;2023-01-01T13:56:48;2.75;1.75;0.50
68698;PMS7003;55680;48.850;2.310;2023-01-01T13:59:26;2.00;1.25;1.00
68698;PMS7003;55680;48.850;2.310;2023-01-01T14:02:07;3.00;3.00;2.00
68698;PMS7003;55680;48.850;2.310;2023-01-01T14:04:47;9.00;2.25;1.00
68698;PMS7003;55680;48.850;2.310;2023-01-01T14:09:49;4.00;2.75;2.50
68698;PMS7003;55680;48.850;2.310;2023-01-01T14:12:17;4.67;4.67;3.00
68698;PMS7003;55680;48.850;2.310;2023-01-01T14:14:43;2.25;2.25;2.00
68698;PMS7003;55680;48.850;2.310;2023-01-01T14:17:10;2.00;2.00;2.00
68698;PMS7003;55680;48.850;2.310;2023-01-01T14:19:37;4.25;4.25;3.00
68698;PMS7003;55680;48.850;2.310;2023-01-01T14:22:05;6.00;4.00;3.00
68698;PMS7003;55680;48.850;2.310;2023-01-01T14:24:31;8.50;4.50;2.75
68698;PMS7003;55680;48.850;2.310;2023-01-01T14:26:56;4.00;2.50;1.00
68698;PMS7003;55680;48.850;2.310;2023-01-01T14:29:26;7.67;3.67;1.00
68698;PMS7003;55680;48.850;2.310;2023-01-01T14:31:52;4.75;4.75;3.00
68698;PMS7003;55680;48.850;2.310;2023-01-01T14:34:30;9.75;4.00;3.00
68698;PMS7003;55680;48.850;2.310;2023-01-01T14:36:57;1.75;1.00;1.00
68698;PMS7003;55680;48.850;2.310;2023-01-01T14:39:23;2.25;0.00;0.00
68698;PMS7003;55680;48.850;2.310;2023-01-01T14:41:49;10.75;5.00;4.00
68698;PMS7003;55680;48.850;2.310;2023-01-01T14:44:16;7.25;5.00;4.00
68698;PMS7003;55680;48.850;2.310;2023-01-01T14:46:46;6.75;6.00;3.00
68698;PMS7003;55680;48.850;2.310;2023-01-01T14:49:16;9.50;7.00;5.00
68698;PMS7003;55680;48.850;2.310;2023-01-01T14:51:44;6.00;4.00;2.50
68698;PMS7003;55680;48.850;2.310;2023-01-01T14:54:13;5.50;5.50;3.25
68698;PMS7003;55680;48.850;2.310;2023-01-01T14:56:40;3.00;3.00;3.00
68698;PMS7003;55680;48.850;2.310;2023-01-01T15:01:31;6.33;5.33;2.00
68698;PMS7003;55680;48.850;2.310;2023-01-01T15:04:03;5.00;5.00;3.00
68698;PMS7003;55680;48.850;2.310;2023-01-01T15:06:29;9.25;7.75;6.00
68698;PMS7003;55680;48.850;2.310;2023-01-01T15:08:54;8.75;7.00;4.00
68698;PMS7003;55680;48.850;2.310;2023-01-01T15:11:20;4.25;4.25;3.00
68698;PMS7003;55680;48.850;2.310;2023-01-01T15:13:52;3.00;3.00;1.75
68698;PMS7003;55680;48.850;2.310;2023-01-01T15:16:18;9.75;5.75;3.00
68698;PMS7003;55680;48.850;2.310;2023-01-01T15:18:44;6.50;4.50;2.50
68698;PMS7003;55680;48.850;2.310;2023-01-01T15:21:25;4.00;3.00;1.50
68698;PMS7003;55680;48.850;2.310;2023-01-01T15:23:58;5.00;4.00;1.50
68698;PMS7003;55680;48.850;2.310;2023-01-01T15:26:36;6.75;5.50;4.00
68698;PMS7003;55680;48.850;2.310;2023-01-01T15:29:06;7.00;5.25;2.50
68698;PMS7003;55680;48.850;2.310;2023-01-01T15:31:42;7.00;6.00;3.25
68698;PMS7003;55680;48.850;2.310;2023-01-01T15:34:15;6.75;4.00;3.00
68698;PMS7003;55680;48.850;2.310;2023-01-01T15:36:42;10.50;10.00;5.50
68698;PMS7003;55680;48.850;2.310;2023-01-01T15:39:10;6.00;6.00;3.33
68698;PMS7003;55680;48.850;2.310;2023-01-01T15:41:43;6.00;6.00;4.00
68698;PMS7003;55680;48.850;2.310;2023-01-01T15:46:47;7.00;2.00;1.00
68698;PMS7003;55680;48.850;2.310;2023-01-01T15:49:26;5.00;3.50;2.00
68698;PMS7003;55680;48.850;2.310;2023-01-01T15:51:59;5.50;4.00;2.00
68698;PMS7003;55680;48.850;2.310;2023-01-01T15:54:26;6.25;6.25;3.00
68698;PMS7003;55680;48.850;2.310;2023-01-01T15:56:51;7.00;6.00;3.00
68698;PMS7003;55680;48.850;2.310;2023-01-01T16:01:48;3.25;3.00;3.00
68698;PMS7003;55680;48.850;2.310;2023-01-01T16:04:24;5.00;4.00;3.00
68698;PMS7003;55680;48.850;2.310;2023-01-01T16:06:50;12.25;9.25;7.00
68698;PMS7003;55680;48.850;2.310;2023-01-01T16:09:17;11.00;9.00;6.50
68698;PMS7003;55680;48.850;2.310;2023-01-01T16:11:43;5.25;4.50;4.00